地図

経路データ

SID SEASON NUMBER BASIN SUBBASIN NAME ISO_TIME NATURE LAT LON WMO_WIND WMO_PRES WMO_AGENCY TRACK_TYPE DIST2LAND LANDFALL IFLAG USA_AGENCY USA_ATCF_ID USA_LAT USA_LON USA_RECORD USA_STATUS USA_WIND USA_PRES USA_SSHS USA_R34_NE USA_R34_SE USA_R34_SW USA_R34_NW USA_R50_NE USA_R50_SE USA_R50_SW USA_R50_NW USA_R64_NE USA_R64_SE USA_R64_SW USA_R64_NW USA_POCI USA_ROCI USA_RMW USA_EYE TOKYO_LAT TOKYO_LON TOKYO_GRADE TOKYO_WIND TOKYO_PRES TOKYO_R50_DIR TOKYO_R50_LONG TOKYO_R50_SHORT TOKYO_R30_DIR TOKYO_R30_LONG TOKYO_R30_SHORT TOKYO_LAND CMA_LAT CMA_LON CMA_CAT CMA_WIND CMA_PRES HKO_LAT HKO_LON HKO_CAT HKO_WIND HKO_PRES NEWDELHI_LAT NEWDELHI_LON NEWDELHI_GRADE NEWDELHI_WIND NEWDELHI_PRES NEWDELHI_CI NEWDELHI_DP NEWDELHI_POCI REUNION_LAT REUNION_LON REUNION_TYPE REUNION_WIND REUNION_PRES REUNION_TNUM REUNION_CI REUNION_RMW REUNION_R34_NE REUNION_R34_SE REUNION_R34_SW REUNION_R34_NW REUNION_R50_NE REUNION_R50_SE REUNION_R50_SW REUNION_R50_NW REUNION_R64_NE REUNION_R64_SE REUNION_R64_SW REUNION_R64_NW BOM_LAT BOM_LON BOM_TYPE BOM_WIND BOM_PRES BOM_TNUM BOM_CI BOM_RMW BOM_R34_NE BOM_R34_SE BOM_R34_SW BOM_R34_NW BOM_R50_NE BOM_R50_SE BOM_R50_SW BOM_R50_NW BOM_R64_NE BOM_R64_SE BOM_R64_SW BOM_R64_NW BOM_ROCI BOM_POCI BOM_EYE BOM_POS_METHOD BOM_PRES_METHOD NADI_LAT NADI_LON NADI_CAT NADI_WIND NADI_PRES WELLINGTON_LAT WELLINGTON_LON WELLINGTON_WIND WELLINGTON_PRES DS824_LAT DS824_LON DS824_STAGE DS824_WIND DS824_PRES TD9636_LAT TD9636_LON TD9636_STAGE TD9636_WIND TD9636_PRES TD9635_LAT TD9635_LON TD9635_WIND TD9635_PRES TD9635_ROCI NEUMANN_LAT NEUMANN_LON NEUMANN_CLASS NEUMANN_WIND NEUMANN_PRES MLC_LAT MLC_LON MLC_CLASS MLC_WIND MLC_PRES USA_GUST BOM_GUST BOM_GUST_PER REUNION_GUST REUNION_GUST_PER USA_SEAHGT USA_SEARAD_NE USA_SEARAD_SE USA_SEARAD_SW USA_SEARAD_NW STORM_SPEED STORM_DIR
1971017S11059 1971 6 SI MM FELICIE 1971-01-17 06:00:00 TS -10.5000 59.1400 reunion main 1040 1013 O____O___OO_O_ jtwc_sh SH091971 -10.5000 58.9000 -1 -10.5000 59.5000 3 9.90000 -10.5000 58.9000 TC 35 -10.5000 58.9000 2 -10.5000 59.5000 TC 35 6 232
1971017S11059 1971 6 SI MM FELICIE 1971-01-17 09:00:00 TS -10.6740 58.9128 main 1013 989 P____P___PP_P_ SH091971 -10.5900 58.7150 -1 -10.7850 59.2177 3 -10.5900 58.7150 TC 35 -10.6202 58.6985 2 -10.7850 59.2177 TC 35 6 235
1971017S11059 1971 6 SI MM FELICIE 1971-01-17 12:00:00 TS -10.8285 58.6555 reunion main 989 954 O____O___OP_O_ jtwc_sh SH091971 -10.7000 58.5000 -1 -11.0000 58.9000 99 9.90000 -10.7000 58.5000 TC 35 -10.7423 58.4776 2 -11.0000 58.9000 TC 35 6 243
1971017S11059 1971 6 SI MM FELICIE 1971-01-17 15:00:00 TS -10.9537 58.3495 main 941 906 P____P___PP_P_ SH091971 -10.8425 58.2300 -1 -11.1075 58.5349 99 -10.8425 58.2300 TC 35 -10.8683 58.2179 2 -11.1075 58.5349 TC 37 7 248
1971017S11059 1971 6 SI MM FELICIE 1971-01-17 18:00:00 TS -11.0800 58.0200 reunion main 906 872 O____O___OO_O_ jtwc_sh SH091971 -11.0000 57.9000 -1 -11.2000 58.2000 99 9.90000 -11.0000 57.9000 TC 35 -11.0000 57.9000 2 -11.2000 58.2000 TC 40 7 245
1971017S11059 1971 6 SI MM FELICIE 1971-01-17 21:00:00 TS -11.2390 57.7145 main 872 834 P____P___PP_P_ SH091971 -11.1425 57.5224 -1 -11.3848 58.0074 99 -11.1425 57.5224 TC 35 -11.1405 57.5130 2 -11.3848 58.0074 TC 42 7 242
1971017S11059 1971 6 SI MM FELICIE 1971-01-18 00:00:00 TS -11.4196 57.3760 reunion main 834 786 O____O___OP_O_ jtwc_sh SH091971 -11.3000 57.1000 -1 -11.6000 57.8000 99 9.90000 -11.3000 57.1000 TC 35 -11.2978 57.0798 2 -11.6000 57.8000 TC 45 8 243
1971017S11059 1971 6 SI MM FELICIE 1971-01-18 03:00:00 TS -11.6132 56.9583 main 786 728 P____P___PP_P_ SH091971 -11.4775 56.6425 -1 -11.8150 57.4376 99 -11.4775 56.6425 TC 35 -11.4812 56.6317 2 -11.8150 57.4376 TC 47 9 244
1971017S11059 1971 6 SI MM FELICIE 1971-01-18 06:00:00 TS -11.8200 56.5200 reunion main 728 690 O____O___OO_O_ jtwc_sh SH091971 -11.7000 56.2000 -1 -12.0000 57.0000 3 9.90000 -11.7000 56.2000 TC 35 -11.7000 56.2000 2 -12.0000 57.0000 TC 50 9 243
1971017S11059 1971 6 SI MM FELICIE 1971-01-18 09:00:00 TS -12.0293 56.1326 main 680 643 P____P___PP_P_ SH091971 -11.9849 55.8349 -1 -12.0924 56.5722 3 -11.9849 55.8349 TC 35 -11.9920 55.8488 2 -12.0924 56.5722 TC 52 9 240
1971017S11059 1971 6 SI MM FELICIE 1971-01-18 12:00:00 TS -12.2629 55.7430 reunion main 629 581 O____O___OP_O_ jtwc_sh SH091971 -12.3000 55.5000 -1 -12.2000 56.1000 99 9.90000 -12.3000 55.5000 TC 35 -12.3143 55.5151 2 -12.2000 56.1000 TC 55 10 236
1971017S11059 1971 6 SI MM FELICIE 1971-01-18 15:00:00 TS -12.5579 55.3239 main 579 531 P____P___PP_P_ SH091971 -12.6299 55.1650 -1 -12.4500 55.5577 99 -12.6299 55.1650 TC 35 -12.6295 55.1738 2 -12.4500 55.5577 TC 57 10 237
1971017S11059 1971 6 SI MM FELICIE 1971-01-18 18:00:00 TS -12.8200 54.8800 reunion main 531 473 O____O___OO_O_ jtwc_sh SH091971 -12.9000 54.8000 -1 -12.7000 55.0000 99 9.90000 -12.9000 54.8000 TC 35 -12.9000 54.8000 2 -12.7000 55.0000 TC 60 10 246
1971017S11059 1971 6 SI MM FELICIE 1971-01-18 21:00:00 TS -12.9560 54.4204 main 473 431 P____P___PP_P_ SH091971 -13.0225 54.3723 -1 -12.8299 54.4924 99 -13.0225 54.3723 TC 35 -13.0752 54.3726 2 -12.8299 54.4924 TC 60 9 256
1971017S11059 1971 6 SI MM FELICIE 1971-01-19 00:00:00 TS -13.0404 53.9419 reunion main 420 376 O____O___OP_O_ jtwc_sh SH091971 -13.1000 53.9000 -1 -12.9000 54.0000 99 9.90000 -13.1000 53.9000 TC 35 -13.2022 53.9093 2 -12.9000 54.0000 TC 60 10 259
1971017S11059 1971 6 SI MM FELICIE 1971-01-19 03:00:00 TS -13.1435 53.4523 main 376 320 P____P___PP_P_ SH091971 -13.2499 53.4150 -1 -12.9574 53.5074 99 -13.2499 53.4150 TC 35 -13.3032 53.4164 2 -12.9574 53.5074 TC 60 10 258
1971017S11059 1971 6 SI MM FELICIE 1971-01-19 06:00:00 TS -13.2400 52.9400 reunion main 310 254 O____O___OO_O_ jtwc_sh SH091971 -13.4000 52.9000 -1 -13.0000 53.0000 4 9.90000 -13.4000 52.9000 TC 35 -13.4000 52.9000 2 -13.0000 53.0000 TC 60 10 260
1971017S11059 1971 6 SI MM FELICIE 1971-01-19 09:00:00 TS -13.3273 52.4019 main 254 199 P____P___PP_P_ SH091971 -13.4999 52.3574 -1 -13.0499 52.4575 4 -13.4999 52.3574 TC 35 -13.5369 52.3797 2 -13.0499 52.4575 TC 62 11 261
1971017S11059 1971 6 SI MM FELICIE 1971-01-19 12:00:00 TS -13.4144 51.8475 reunion main 189 134 O____O___OP_O_ jtwc_sh SH091971 -13.6000 51.8000 -1 -13.1000 51.9000 99 9.90000 -13.6000 51.8000 TC 35 -13.6721 51.8376 2 -13.1000 51.9000 TC 65 11 260
1971017S11059 1971 6 SI MM FELICIE 1971-01-19 15:00:00 TS -13.5192 51.2923 main 134 78 P____P___PP_P_ SH091971 -13.7573 51.2576 -1 -13.1425 51.3349 99 -13.7573 51.2576 TC 35 -13.7962 51.2766 2 -13.1425 51.3349 TC 65 11 259
1971017S11059 1971 6 SI MM FELICIE 1971-01-19 18:00:00 TS -13.6200 50.7400 reunion main 68 15 O____O___OO_O_ jtwc_sh SH091971 -13.9000 50.7000 -1 -13.2000 50.8000 99 9.90000 -13.9000 50.7000 TC 35 -13.9000 50.7000 2 -13.2000 50.8000 TC 65 11 261
1971017S11059 1971 6 SI MM FELICIE 1971-01-19 21:00:00 TS -13.6843 50.1865 main 15 0 P____P___PP_P_ SH091971 -13.9649 50.1074 -1 -13.2698 50.3423 99 -13.9649 50.1074 TC 35 -13.9520 50.0329 2 -13.2698 50.3423 TC 62 11 263
1971017S11059 1971 6 SI MM FELICIE 1971-01-20 00:00:00 TS -13.7572 49.6329 reunion main 0 0 O____O___OP_O_ jtwc_sh SH091971 -14.0000 49.5000 -1 -13.4000 49.9000 99 9.90000 -14.0000 49.5000 TC 35 -13.9862 49.3647 2 -13.4000 49.9000 TC 60 11 260
1971017S11059 1971 6 SI MM FELICIE 1971-01-20 03:00:00 TS -13.8826 49.0339 main 0 0 P____P___PP_P_ SH091971 -14.0352 48.8325 -1 -13.6576 49.3703 99 -14.0352 48.8325 TC 35 -14.0271 48.7642 2 -13.6576 49.3703 TC 52 11 256
1971017S11059 1971 6 SI MM FELICIE 1971-01-20 06:00:00 TS -14.0200 48.5400 reunion main 0 0 O____O___OO_O_ jtwc_sh SH091971 -14.1000 48.3000 -1 -13.9000 48.9000 4 9.90000 -14.1000 48.3000 TC 35 -14.1000 48.3000 2 -13.9000 48.9000 TC 45 8 251
1971017S11059 1971 6 SI MM FELICIE 1971-01-20 09:00:00 TS -14.1329 48.2866 main 0 0 P____P___PP_P_ SH091971 -14.2272 48.0675 -1 -13.9798 48.6048 4 -14.2272 48.0675 TC 35 -14.2502 48.0885 2 -13.9798 48.6048 TC 40 4 238
1971017S11059 1971 6 SI MM FELICIE 1971-01-20 12:00:00 TS -14.2467 48.1619 reunion main 0 0 O____O___OP_O_ jtwc_sh SH091971 -14.4000 48.0000 -1 -14.0000 48.4000 99 9.90000 -14.4000 48.0000 TC 35 -14.4337 48.0096 2 -14.0000 48.4000 TC 35 3 221
1971017S11059 1971 6 SI MM FELICIE 1971-01-20 15:00:00 TS -14.3880 48.0611 main 0 0 P____P___PP_P_ SH091971 -14.6074 47.9724 -1 -14.0500 48.1925 99 -14.6074 47.9724 TC 35 -14.6254 47.9759 2 -14.0500 48.1925 TC 32 3 219
1971017S11059 1971 6 SI MM FELICIE 1971-01-20 18:00:00 TS -14.5200 47.9400 reunion main 0 0 O____O___OO_O_ jtwc_sh SH091971 -14.8000 47.9000 -1 -14.1000 48.0000 99 9.90000 -14.8000 47.9000 TC 35 -14.8000 47.9000 2 -14.1000 48.0000 TC 30 4 239
1971017S11059 1971 6 SI MM FELICIE 1971-01-20 21:00:00 TS -14.5937 47.7072 main 10 10 P____P___PP_P_ SH091971 -14.9151 47.6375 -1 -14.1125 47.7999 99 -14.9151 47.6375 TC 35 -14.9135 47.6614 2 -14.1125 47.7999 TC 32 5 252
1971017S11059 1971 6 SI MM FELICIE 1971-01-21 00:00:00 TS -14.6815 47.4335 reunion main 11 10 O____O___OP_O_ jtwc_sh SH091971 -15.0000 47.3000 -1 -14.2000 47.6000 99 9.90000 -15.0000 47.3000 TC 35 -15.0076 47.3673 2 -14.2000 47.6000 TC 35 6 243
1971017S11059 1971 6 SI MM FELICIE 1971-01-21 03:00:00 TS -14.8535 47.1799 main 10 10 P____P___PP_P_ SH091971 -15.0925 46.9999 -1 -14.4924 47.4300 99 -15.0925 46.9999 TC 35 -15.0979 47.0395 2 -14.4924 47.4300 TC 35 6 235
1971017S11059 1971 6 SI MM FELICIE 1971-01-21 06:00:00 TS -15.0400 46.9000 reunion main 24 15 O____O___OO_O_ jtwc_sh SH091971 -15.2000 46.7000 -1 -14.8000 47.2000 3 9.90000 -15.2000 46.7000 TC 35 -15.2000 46.7000 2 -14.8000 47.2000 TC 35 7 241
1971017S11059 1971 6 SI MM FELICIE 1971-01-21 09:00:00 TS -15.1763 46.5782 main 22 22 P____P___PP_P_ SH091971 -15.3424 46.4075 -1 -14.9225 46.8448 3 -15.3424 46.4075 TC 35 -15.3517 46.3864 2 -14.9225 46.8448 TC 37 7 248
1971017S11059 1971 6 SI MM FELICIE 1971-01-21 12:00:00 TS -15.3030 46.2131 reunion main 39 39 O____O___OP_O_ jtwc_sh SH091971 -15.5000 46.1000 -1 -15.0000 46.4000 99 9.90000 -15.5000 46.1000 TC 35 -15.5148 46.0652 2 -15.0000 46.4000 TC 40 8 250
1971017S11059 1971 6 SI MM FELICIE 1971-01-21 15:00:00 TS -15.4420 45.8311 main 49 35 P____P___PP_P_ SH091971 -15.6649 45.7650 -1 -15.1048 45.9446 99 -15.6649 45.7650 TC 35 -15.6705 45.7364 2 -15.1048 45.9446 TC 47 8 249
1971017S11059 1971 6 SI MM FELICIE 1971-01-21 18:00:00 TS -15.6000 45.4000 reunion main 39 24 O____O___OO_O_ jtwc_sh SH091971 -15.8000 45.4000 -1 -15.3000 45.4000 99 9.90000 -15.8000 45.4000 TC 35 -15.8000 45.4000 2 -15.3000 45.4000 TC 55 10 250
1971017S11059 1971 6 SI MM FELICIE 1971-01-21 21:00:00 TS -15.7831 44.8804 main 30 30 P____P___PP_P_ SH091971 -15.8650 44.9924 -1 -15.6553 44.7003 99 -15.8650 44.9924 TC 30 -15.8749 45.0164 2 -15.6553 44.7003 TC 55 11 249
1971017S11059 1971 6 SI MM FELICIE 1971-01-22 00:00:00 TS -15.9846 44.3664 reunion main 33 30 O____O___OP_O_ jtwc_sh SH091971 -15.9000 44.6000 -1 -16.1000 44.0000 99 9.90000 -15.9000 44.6000 TC 25 -15.9229 44.6322 2 -16.1000 44.0000 TC 55 10 245
1971017S11059 1971 6 SI MM FELICIE 1971-01-22 03:00:00 TS -16.2159 43.9136 main 54 54 P____P___PP_P_ SH091971 -15.9500 44.2550 -1 -16.6100 43.3879 99 -15.9500 44.2550 TC 25 -15.9593 44.2820 2 -16.6100 43.3879 TC 52 8 241
1971017S11059 1971 6 SI MM FELICIE 1971-01-22 06:00:00 TS -16.4000 43.6000 reunion main 85 85 O____O___OO_O_ jtwc_sh SH091971 -16.0000 44.0000 -1 -17.0000 43.0000 3 9.90000 -16.0000 44.0000 TC 25 -16.0000 44.0000 1 -17.0000 43.0000 TC 50 5 239
1971017S11059 1971 6 SI MM FELICIE 1971-01-22 09:00:00 TS -16.4506 43.5005 main 95 95 P____P___PP_P_ SH091971 -16.0424 43.8700 -1 -17.0523 42.9672 3 -16.0424 43.8700 TC 25 -16.0634 43.8280 1 -17.0523 42.9672 TC 47 1 233
1971017S11059 1971 6 SI MM FELICIE 1971-01-22 12:00:00 TS -16.4669 43.5050 reunion main 95 95 O____O___OP_O_ jtwc_sh SH091971 -16.1000 43.8000 -1 -17.0000 43.1000 99 9.90000 -16.1000 43.8000 TC 25 -16.1346 43.7249 1 -17.0000 43.1000 TC 45 1 0
1971017S11059 1971 6 SI MM FELICIE 1971-01-22 15:00:00 TS -16.5507 43.4719 main 91 91 P____P___PP_P_ SH091971 -16.1925 43.7000 -1 -17.0775 43.1500 99 -16.1925 43.7000 TC 25 -16.2135 43.6593 1 -17.0775 43.1500 TC 42 2 197
1971017S11059 1971 6 SI MM FELICIE 1971-01-22 18:00:00 TS -16.6600 43.4400 reunion main 93 86 O____O___OO_O_ jtwc_sh SH091971 -16.3000 43.6000 -1 -17.2000 43.2000 99 9.90000 -16.3000 43.6000 TC 25 -16.3000 43.6000 1 -17.2000 43.2000 TC 40 2 198
1971017S11059 1971 6 SI MM FELICIE 1971-01-22 21:00:00 TS -16.7854 43.3946 main 86 81 P____P___PP_P_ SH091971 -16.4000 43.5000 -1 -17.3650 43.2425 99 -16.4000 43.5000 TC 25 -16.3969 43.4879 1 -17.3650 43.2425 TC 40 3 199
1971017S11059 1971 6 SI MM FELICIE 1971-01-23 00:00:00 TS -16.9000 43.3555 reunion main 81 81 O____O___OP_O_ jtwc_sh SH091971 -16.5000 43.4000 -1 -17.5000 43.3000 99 9.90000 -16.5000 43.4000 TC 25 -16.5000 43.3776 1 -17.5000 43.3000 TC 40 2 198
1971017S11059 1971 6 SI MM FELICIE 1971-01-23 03:00:00 TS -16.9696 43.3327 main 84 84 P____P___PP_P_ SH091971 -16.6000 43.2925 -1 -17.5225 43.4000 99 -16.6000 43.2925 TC 25 -16.6031 43.2785 1 -17.5225 43.4000 TC 37 1 196
1971017S11059 1971 6 SI MM FELICIE 1971-01-23 06:00:00 TS -17.0200 43.3200 reunion main 84 77 O____O___OO_O_ jtwc_sh SH091971 -16.7000 43.2000 -1 -17.5000 43.5000 3 9.90000 -16.7000 43.2000 TC 25 -16.7000 43.2000 1 -17.5000 43.5000 TC 35 1 201
1971017S11059 1971 6 SI MM FELICIE 1971-01-23 09:00:00 TS -17.0808 43.3017 main 77 77 P____P___PP_P_ SH091971 -16.8075 43.1350 -1 -17.5075 43.5425 3 -16.8075 43.1350 TC 25 -16.7740 43.1534 1 -17.5075 43.5425 TC 35 1 194
1971017S11059 1971 6 SI MM FELICIE 1971-01-23 12:00:00 TS -17.1285 43.3055 reunion main 77 69 O____O___OP_O_ jtwc_sh SH091971 -16.9000 43.1000 -1 -17.5000 43.6000 99 9.90000 -16.9000 43.1000 TC 25 -16.8425 43.1274 1 -17.5000 43.6000 TC 35 1 140
1971017S11059 1971 6 SI MM FELICIE 1971-01-23 15:00:00 TS -17.1489 43.3596 main 69 62 P____P___PP_P_ SH091971 -16.9500 43.0925 -1 -17.4650 43.7500 99 -16.9500 43.0925 TC 25 -16.9147 43.1128 1 -17.4650 43.7500 TC 32 1 105
1971017S11059 1971 6 SI MM FELICIE 1971-01-23 18:00:00 TS -17.1600 43.4200 reunion main 62 62 O____O___OO_O_ jtwc_sh SH091971 -17.0000 43.1000 -1 -17.4000 43.9000 99 9.90000 -17.0000 43.1000 TC 25 -17.0000 43.1000 1 -17.4000 43.9000 TC 30 1 101
1971017S11059 1971 6 SI MM FELICIE 1971-01-23 21:00:00 TS -17.1642 43.4378 main 62 62 P____P___PP_P_ SH091971 -17.0850 43.1075 -1 -17.2925 43.9575 99 -17.0850 43.1075 TC 25 -17.0659 43.0589 1 -17.2925 43.9575 TC 30 0 140
1971017S11059 1971 6 SI MM FELICIE 1971-01-24 00:00:00 TS -17.1905 43.4440 reunion main 62 62 O____O___OP_O_ jtwc_sh SH091971 -17.2000 43.1000 -1 -17.2000 44.0000 99 9.90000 -17.2000 43.1000 TC 25 -17.1525 43.0203 1 -17.2000 44.0000 TC 30 1 0
1971017S11059 1971 6 SI MM FELICIE 1971-01-24 03:00:00 TS -17.2536 43.4473 main 57 43 P____P___PP_P_ SH091971 -17.3050 43.0426 -1 -17.1850 44.0775 99 -17.3050 43.0426 TC 25 -17.2878 42.9965 1 -17.1850 44.0775 TC 30 2 168
1971017S11059 1971 6 SI MM FELICIE 1971-01-24 06:00:00 TS -17.3800 43.4800 reunion main 43 31 O____O___OO_O_ jtwc_sh SH091971 -17.5000 43.0000 -1 -17.2000 44.2000 2 9.90000 -17.5000 43.0000 TC 25 -17.5000 43.0000 1 -17.2000 44.2000 TC 30 4 160
1971017S11059 1971 6 SI MM FELICIE 1971-01-24 09:00:00 TS -17.6073 43.5796 main 33 31 P____P___PP_P_ SH091971 -17.8625 43.0275 -1 -17.1925 44.3925 2 -17.8625 43.0275 TC 25 -17.9266 43.0579 1 -17.1925 44.3925 TC 30 6 157
1971017S11059 1971 6 SI MM FELICIE 1971-01-24 12:00:00 TS -17.8825 43.7083 reunion main 31 21 O____O___OP_O_ jtwc_sh SH091971 -18.3000 43.1000 -1 -17.2000 44.6000 99 9.90000 -18.3000 43.1000 TC 25 -18.4126 43.1417 1 -17.2000 44.6000 TC 30 6 157
1971017S11059 1971 6 SI MM FELICIE 1971-01-24 15:00:00 TS -18.1784 43.8319 main 21 10 P____P___PP_P_ SH091971 -18.7975 43.1998 -1 -17.2275 44.7650 99 -18.7975 43.1998 TC 25 -18.8423 43.2298 1 -17.2275 44.7650 TC 30 5 156
1971017S11059 1971 6 SI MM FELICIE 1971-01-24 18:00:00 TS -18.3800 43.9400 reunion main 10 0 O____O___OO_O_ jtwc_sh SH091971 -19.1000 43.3000 -1 -17.3000 44.9000 99 9.90000 -19.1000 43.3000 TC 25 -19.1000 43.3000 1 -17.3000 44.9000 TC 30 3 132
1971017S11059 1971 6 SI MM FELICIE 1971-01-24 21:00:00 TS -18.3468 44.0311 main 0 0 P____P___PP_P_ SH091971 -18.9475 43.3727 -1 -17.4275 45.0299 99 -18.9475 43.3727 TC 25 -18.9840 43.3503 1 -17.4275 45.0299 TC 30 2 37
1971017S11059 1971 6 SI MM FELICIE 1971-01-25 00:00:00 TS -18.2195 44.0751 reunion main 0 0 O____O___OP_O_ jtwc_sh SH091971 -18.6000 43.4000 -1 -17.6000 45.1000 99 9.90000 -18.6000 43.4000 TC 25 -18.6974 43.3752 1 -17.6000 45.1000 TC 30 2 11
1971017S11059 1971 6 SI MM FELICIE 1971-01-25 03:00:00 TS -18.1203 44.0745 main 0 0 P____P___PP_P_ SH091971 -18.3050 43.3799 -1 -17.8149 45.1250 99 -18.3050 43.3799 TC 25 -18.3621 43.3625 1 -17.8149 45.1250 TC 27 2 332
1971017S11059 1971 6 SI MM FELICIE 1971-01-25 06:00:00 TS -18.0600 43.9800 reunion main 0 0 O____O___OO_O_ jtwc_sh SH091971 -18.1000 43.3000 -1 -18.0000 45.0000 2 9.90000 -18.1000 43.3000 TC 25 -18.1000 43.3000 1 -18.0000 45.0000 TC 25 3 278
1971017S11059 1971 6 SI MM FELICIE 1971-01-25 09:00:00 TS -18.0819 43.7749 main 21 21 P____P___PP_P_ SH091971 -18.0975 43.1725 -1 -18.0725 44.6749 2 -18.0975 43.1725 TC 25 -18.0694 43.1794 1 -18.0725 44.6749 TC 27 5 260
1971017S11059 1971 6 SI MM FELICIE 1971-01-25 12:00:00 TS -18.1460 43.4820 reunion main 52 52 O____O___OP_O_ jtwc_sh SH091971 -18.2000 43.0000 -1 -18.1000 44.2000 99 9.90000 -18.2000 43.0000 TC 25 -18.1301 43.0101 1 -18.1000 44.2000 TC 30 6 256
1971017S11059 1971 6 SI MM FELICIE 1971-01-25 15:00:00 TS -18.2271 43.1542 main 84 84 P____P___PP_P_ SH091971 -18.2775 42.8075 -1 -18.1650 43.6726 99 -18.2775 42.8075 TC 25 -18.2507 42.8107 1 -18.1650 43.6726 TC 32 7 255
1971017S11059 1971 6 SI MM FELICIE 1971-01-25 18:00:00 TS -18.3200 42.8000 reunion main 126 126 O____O___OO_O_ jtwc_sh SH091971 -18.4000 42.6000 -1 -18.2000 43.1000 99 9.90000 -18.4000 42.6000 TC 25 -18.4000 42.6000 1 -18.2000 43.1000 TC 35 7 254
1971017S11059 1971 6 SI MM FELICIE 1971-01-25 21:00:00 TS -18.4157 42.4576 main 158 158 P____P___PP_P_ SH091971 -18.6000 42.4001 -1 -18.1649 42.5424 99 -18.6000 42.4001 TC 25 -18.5488 42.4033 1 -18.1649 42.5424 TC 37 7 250
1971017S11059 1971 6 SI MM FELICIE 1971-01-26 00:00:00 TS -18.5478 42.1334 reunion main 200 200 O____O___OP_O_ jtwc_sh SH091971 -18.8000 42.2000 -1 -18.1000 42.0000 99 9.90000 -18.8000 42.2000 TC 25 -18.7150 42.2003 1 -18.1000 42.0000 TC 40 6 243
1971017S11059 1971 6 SI MM FELICIE 1971-01-26 03:00:00 TS -18.6997 41.8668 main 223 223 P____P___PP_P_ SH091971 -18.9300 42.0000 -1 -18.0463 41.4778 99 -18.9300 42.0000 TC 30 -18.8738 41.9971 1 -18.0463 41.4778 TC 42 5 234
1971017S11059 1971 6 SI MM FELICIE 1971-01-26 06:00:00 TS -18.8571 41.6857 reunion main 248 248 O____O___OO_O_ jtwc_sh SH091971 -19.0000 41.8000 -1 -18.0000 41.0000 3 9.90000 -19.0000 41.8000 TC 35 -19.0000 41.8000 2 -18.0000 41.0000 TC 45 4 218
1971017S11059 1971 6 SI MM FELICIE 1971-01-26 09:00:00 TS -19.0253 41.5968 main 261 261 P____P___PP_P_ SH091971 -19.0075 41.5924 -1 -17.9727 40.5393 3 -19.0075 41.5924 TC 35 -19.0609 41.6054 2 -17.9727 40.5393 TC 3 237
1971017S11059 1971 6 SI MM FELICIE 1971-01-26 12:00:00 TS -19.0292 41.4066 reunion main 281 281 O____P___OP_P_ jtwc_sh SH091971 -19.0000 41.4000 -1 -17.9642 40.1150 3 -19.0000 41.4000 TC 35 -19.0875 41.4197 2 -17.9642 40.1150 TC 3 263
1971017S11059 1971 6 SI MM FELICIE 1971-01-26 15:00:00 TS -19.0651 41.2398 main 305 305 P____P___PP_P_ SH091971 -19.0500 41.2350 -1 -17.9729 39.7309 3 -19.0500 41.2350 TC 35 -19.0953 41.2492 2 -17.9729 39.7309 TC 3 256
1971017S11059 1971 6 SI MM FELICIE 1971-01-26 18:00:00 TS -19.1000 41.1000 reunion main 315 309 O____P___OO_P_ jtwc_sh SH091971 -19.1000 41.1000 -1 -17.9976 39.3904 3 -19.1000 41.1000 TC 35 -19.1000 41.1000 2 -17.9976 39.3904 TC 2 258
1971017S11059 1971 6 SI MM FELICIE 1971-01-26 21:00:00 TS -19.1122 41.0054 main 309 302 P____P___PP_P_ SH091971 -19.1000 40.9925 -1 -18.0367 39.0972 3 -19.1000 40.9925 TC 35 -19.1367 41.0313 2 -18.0367 39.0972 TC 2 262
1971017S11059 1971 6 SI MM FELICIE 1971-01-27 00:00:00 TS -19.1239 40.9250 reunion main 302 302 O____P___OP_P_ jtwc_sh SH091971 -19.1000 40.9000 -1 -18.0890 38.8549 3 -19.1000 40.9000 TC 35 -19.1717 40.9751 2 -18.0890 38.8549 TC 1 248
1971017S11059 1971 6 SI MM FELICIE 1971-01-27 03:00:00 TS -19.1651 40.8671 main 311 298 P____P___PP_P_ SH091971 -19.1498 40.8600 -1 -18.1530 38.6672 3 -19.1498 40.8600 TC 35 -19.1959 40.8814 2 -18.1530 38.6672 TC 2 250
1971017S11059 1971 6 SI MM FELICIE 1971-01-27 06:00:00 TS -19.2000 40.7000 reunion main 298 276 O____P___OO_P_ jtwc_sh SH091971 -19.2000 40.7000 -1 -18.2272 38.5378 3 -19.2000 40.7000 TC 35 -19.2000 40.7000 2 -18.2272 38.5378 TC 6 264
1971017S11059 1971 6 SI MM FELICIE 1971-01-27 09:00:00 TS -19.2265 40.2500 main 276 257 P____P___PP_P_ SH091971 -19.2229 40.2376 -1 -18.3102 38.4705 3 -19.2229 40.2376 TC 35 -19.2339 40.2749 2 -18.3102 38.4705 TC 9 269
1971017S11059 1971 6 SI MM FELICIE 1971-01-27 12:00:00 TS -19.2123 39.7248 reunion main 254 243 O____P___OP_P_ jtwc_sh SH091971 -19.2000 39.7000 -1 -18.4004 38.4692 3 -19.2000 39.7000 TC 35 -19.2369 39.7745 2 -18.4004 38.4692 TC 9 273
1971017S11059 1971 6 SI MM FELICIE 1971-01-27 15:00:00 TS -19.1737 39.2722 main 243 212 P____P___PP_P_ SH091971 -19.1750 39.2523 -1 -18.4962 38.5375 3 -19.1750 39.2523 TC 35 -19.1712 39.3119 2 -18.4962 38.5375 TC 7 287
1971017S11059 1971 6 SI MM FELICIE 1971-01-27 18:00:00 TS -19.0000 39.0000 reunion main 212 170 O____P___OO_P_ jtwc_sh SH091971 -19.0000 39.0000 -1 -18.5959 38.6795 3 -19.0000 39.0000 TC 35 -19.0000 39.0000 2 -18.5959 38.6795 TC 7 341
1971017S11059 1971 6 SI MM FELICIE 1971-01-27 21:00:00 TS -18.5302 39.0372 main 159 134 P____P___PP_P_ SH091971 -18.5375 39.0754 -1 -18.6978 38.8991 3 -18.5375 39.0754 TC 35 -18.5484 38.9904 2 -18.6978 38.8991 TC 8 16
1971017S11059 1971 6 SI MM FELICIE 1971-01-28 00:00:00 TS -18.2037 39.2344 reunion main 134 116 O____O___OP_O_ jtwc_sh SH091971 -18.0000 39.3000 -1 -18.8000 39.2000 99 9.90000 -18.0000 39.3000 TC 35 -18.0147 39.1377 2 -18.8000 39.2000 TC 65 7 39
1971017S11059 1971 6 SI MM FELICIE 1971-01-28 03:00:00 TS -18.0026 39.4822 main 119 119 P____P___PP_P_ SH091971 -17.5225 39.4576 -1 -18.9077 39.6077 99 -17.5225 39.4576 TC 35 -17.5487 39.3657 2 -18.9077 39.6077 TC 67 5 66
1971017S11059 1971 6 SI MM FELICIE 1971-01-28 06:00:00 TS -17.9800 39.7600 reunion main 134 134 O____O___OO_O_ jtwc_sh SH091971 -17.3000 39.6000 -1 -19.0000 40.0000 4 9.90000 -17.3000 39.6000 TC 35 -17.3000 39.6000 2 -19.0000 40.0000 TC 70 4 108
1971017S11059 1971 6 SI MM FELICIE 1971-01-28 09:00:00 TS -18.1361 39.9272 main 149 149 P____P___PP_P_ SH091971 -17.5300 39.6999 -1 -19.0649 40.2725 4 -17.5300 39.6999 TC 35 -17.4909 39.6913 2 -19.0649 40.2725 TC 70 5 146
1971017S11059 1971 6 SI MM FELICIE 1971-01-28 12:00:00 TS -18.4209 40.0765 reunion main 189 189 O____O___OP_O_ jtwc_sh SH091971 -18.0000 39.8000 -1 -19.1000 40.5000 99 9.90000 -18.0000 39.8000 TC 35 -17.9045 39.7823 2 -19.1000 40.5000 TC 70 7 152
1971017S11059 1971 6 SI MM FELICIE 1971-01-28 15:00:00 TS -18.7091 40.2435 main 223 223 P____P___PP_P_ SH091971 -18.4574 39.9201 -1 -19.1074 40.7350 99 -18.4574 39.9201 TC 35 -18.4158 39.9071 2 -19.1074 40.7350 TC 70 7 147
1971017S11059 1971 6 SI MM FELICIE 1971-01-28 18:00:00 TS -18.9800 40.4600 reunion main 268 268 O____O___OO_O_ jtwc_sh SH091971 -18.9000 40.1000 -1 -19.1000 41.0000 99 9.90000 -18.9000 40.1000 TC 35 -18.9000 40.1000 2 -19.1000 41.0000 TC 70 7 134
1971017S11059 1971 6 SI MM FELICIE 1971-01-28 21:00:00 TS -19.1826 40.7637 main 304 304 P____P___PP_P_ SH091971 -19.2449 40.3550 -1 -19.1076 41.3650 99 -19.2449 40.3550 TC 30 -19.2077 40.3784 2 -19.1076 41.3650 TC 72 7 120
1971017S11059 1971 6 SI MM FELICIE 1971-01-29 00:00:00 TS -19.3324 41.1059 reunion main 321 295 O____O___OP_O_ jtwc_sh SH091971 -19.5000 40.7000 -1 -19.1000 41.7000 99 9.90000 -19.5000 40.7000 TC 25 -19.4622 40.7295 2 -19.1000 41.7000 TC 75 7 112
1971017S11059 1971 6 SI MM FELICIE 1971-01-29 03:00:00 TS -19.4270 41.4072 main 295 266 P____P___PP_P_ SH091971 -19.6875 41.1200 -1 -19.0497 41.8275 99 -19.6875 41.1200 TC 25 -19.6606 41.1409 2 -19.0497 41.8275 TC 70 6 103
1971017S11059 1971 6 SI MM FELICIE 1971-01-29 06:00:00 TS -19.4800 41.7600 reunion main 255 214 O____O___OO_O_ jtwc_sh SH091971 -19.8000 41.6000 -1 -19.0000 42.0000 4 9.90000 -19.8000 41.6000 TC 25 -19.8000 41.6000 1 -19.0000 42.0000 TC 65 8 97
1971017S11059 1971 6 SI MM FELICIE 1971-01-29 09:00:00 TS -19.5233 42.2287 main 214 163 P____P___PP_P_ SH091971 -19.8724 42.0851 -1 -18.9927 42.4475 4 -19.8724 42.0851 TC 25 -19.8866 42.0785 1 -18.9927 42.4475 TC 62 9 94
1971017S11059 1971 6 SI MM FELICIE 1971-01-29 12:00:00 TS -19.5435 42.7597 reunion main 153 104 O____O___OP_O_ jtwc_sh SH091971 -19.9000 42.6000 -1 -19.0000 43.0000 99 9.90000 -19.9000 42.6000 TC 25 -19.9174 42.5984 1 -19.0000 43.0000 TC 60 10 91
1971017S11059 1971 6 SI MM FELICIE 1971-01-29 15:00:00 TS -19.5458 43.2858 main 104 61 P____P___PP_P_ SH091971 -19.9074 43.1426 -1 -18.9999 43.5000 99 -19.9074 43.1426 TC 25 -19.9146 43.1440 1 -18.9999 43.5000 TC 60 10 90
1971017S11059 1971 6 SI MM FELICIE 1971-01-29 18:00:00 TS -19.5400 43.8200 reunion main 61 20 O____O___OO_O_ jtwc_sh SH091971 -19.9000 43.7000 -1 -19.0000 44.0000 99 9.90000 -19.9000 43.7000 TC 25 -19.9000 43.7000 1 -19.0000 44.0000 TC 60 10 90
1971017S11059 1971 6 SI MM FELICIE 1971-01-29 21:00:00 TS -19.5396 44.3478 main 20 0 P____P___PP_P_ SH091971 -19.8998 44.2500 -1 -18.9999 44.5000 99 -19.8998 44.2500 TC 25 -19.8986 44.2391 1 -18.9999 44.5000 TC 55 10 90
1971017S11059 1971 6 SI MM FELICIE 1971-01-30 00:00:00 TS -19.5384 44.8771 reunion main 0 0 O____O___OP_O_ jtwc_sh SH091971 -19.9000 44.8000 -1 -19.0000 45.0000 99 9.90000 -19.9000 44.8000 TC 25 -19.8918 44.7855 1 -19.0000 45.0000 TC 50 10 89
1971017S11059 1971 6 SI MM FELICIE 1971-01-30 03:00:00 TS -19.5287 45.4079 main 0 0 P____P___PP_P_ SH091971 -19.8923 45.3501 -1 -18.9849 45.5001 99 -19.8923 45.3501 TC 25 -19.8892 45.3391 1 -18.9849 45.5001 TC 45 10 90
1971017S11059 1971 6 SI MM FELICIE 1971-01-30 06:00:00 TS -19.5400 45.9400 reunion main 0 0 O____O___OO_O_ jtwc_sh SH091971 -19.9000 45.9000 -1 -19.0000 46.0000 6 9.90000 -19.9000 45.9000 TC 25 -19.9000 45.9000 1 -19.0000 46.0000 TC 40 10 94
1971017S11059 1971 6 SI MM FELICIE 1971-01-30 09:00:00 TS -19.6001 46.4729 main 0 0 P____P___PP_P_ SH091971 -19.9423 46.4425 -1 -19.0924 46.4999 6 -19.9423 46.4425 TC 25 -19.9314 46.4799 1 -19.0924 46.4999 TC 35 10 98
1971017S11059 1971 6 SI MM FELICIE 1971-01-30 12:00:00 TS -19.6755 47.0130 reunion main 0 0 O____O___OP_O_ jtwc_sh SH091971 -20.0000 47.0000 -1 -19.2000 47.0000 99 9.90000 -20.0000 47.0000 TC 25 -19.9773 47.0649 1 -19.2000 47.0000 TC 30 10 97
1971017S11059 1971 6 SI MM FELICIE 1971-01-30 15:00:00 TS -19.7238 47.5626 main 0 0 P____P___PP_P_ SH091971 -20.0499 47.5925 -1 -19.2423 47.4928 99 -20.0499 47.5925 TC 25 -20.0346 47.6425 1 -19.2423 47.4928 TC 27 10 96
1971017S11059 1971 6 SI MM FELICIE 1971-01-30 18:00:00 TS -19.7800 48.1200 reunion main 0 0 O____O___OO_O_ jtwc_sh SH091971 -20.1000 48.2000 -1 -19.3000 48.0000 99 9.90000 -20.1000 48.2000 TC 25 -20.1000 48.2000 1 -19.3000 48.0000 TC 25 11 97
1971017S11059 1971 6 SI MM FELICIE 1971-01-30 21:00:00 TS -19.8576 48.7212 main 0 0 P____P___PP_P_ SH091971 -20.1426 48.8301 -1 -19.4275 48.5575 99 -20.1426 48.8301 TC 25 -20.1480 48.8309 1 -19.4275 48.5575 TC 27 11 99
1971017S11059 1971 6 SI MM FELICIE 1971-01-31 00:00:00 TS -19.9612 49.2849 reunion main 52 52 O____O___OP_O_ jtwc_sh SH091971 -20.2000 49.4000 -1 -19.6000 49.1000 99 9.90000 -20.2000 49.4000 TC 25 -20.2058 49.4244 1 -19.6000 49.1000 TC 30 10 103
1971017S11059 1971 6 SI MM FELICIE 1971-01-31 03:00:00 TS -20.0821 49.7960 main 105 105 P____P___PP_P_ SH091971 -20.2774 49.8974 -1 -19.7851 49.6398 99 -20.2774 49.8974 TC 25 -20.2855 49.9057 1 -19.7851 49.6398 TC 37 8 110
1971017S11059 1971 6 SI MM FELICIE 1971-01-31 06:00:00 TS -20.2400 50.1200 reunion main 137 137 O____O___OO_O_ jtwc_sh SH091971 -20.4000 50.2000 -1 -20.0000 50.0000 3 9.90000 -20.4000 50.2000 TC 25 -20.4000 50.2000 1 -20.0000 50.0000 TC 45 5 136
1971017S11059 1971 6 SI MM FELICIE 1971-01-31 09:00:00 TS -20.4459 50.1661 main 152 146 P____P___PP_P_ SH091971 -20.5848 50.2550 -1 -20.2423 50.0402 3 -20.5848 50.2550 TC 25 -20.5754 50.2399 1 -20.2423 50.0402 TC 47 4 193
1971017S11059 1971 6 SI MM FELICIE 1971-01-31 12:00:00 TS -20.6768 50.0182 reunion main 146 136 O____O___OP_O_ jtwc_sh SH091971 -20.8000 50.1000 -1 -20.5000 49.9000 99 9.90000 -20.8000 50.1000 TC 25 -20.7841 50.0909 1 -20.5000 49.9000 TC 50 6 215
1971017S11059 1971 6 SI MM FELICIE 1971-01-31 15:00:00 TS -20.9122 49.8143 main 136 125 P____P___PP_P_ SH091971 -21.0076 49.8376 -1 -20.7724 49.7875 99 -21.0076 49.8376 TC 25 -21.0008 49.8212 1 -20.7724 49.7875 TC 52 6 225
1971017S11059 1971 6 SI MM FELICIE 1971-01-31 18:00:00 TS -21.1200 49.5400 reunion main 114 95 O____O___OO_O_ jtwc_sh SH091971 -21.2000 49.5000 -1 -21.0000 49.6000 99 9.90000 -21.2000 49.5000 TC 25 -21.2000 49.5000 1 -21.0000 49.6000 TC 55 6 237
1971017S11059 1971 6 SI MM FELICIE 1971-01-31 21:00:00 TS -21.2567 49.2509 main 99 70 P____P___PP_P_ SH091971 -21.3649 49.1999 -1 -21.1076 49.3074 99 -21.3649 49.1999 TC 25 -21.3385 49.2397 1 -21.1076 49.3074 TC 57 6 245
1971017S11059 1971 6 SI MM FELICIE 1971-02-01 00:00:00 TS -21.3715 48.9489 reunion main 62 42 O____O___OP_O_ jtwc_sh SH091971 -21.5000 48.9000 -1 -21.2000 49.0000 99 9.90000 -21.5000 48.9000 TC 25 -21.4575 48.9445 1 -21.2000 49.0000 TC 60 6 244
1971017S11059 1971 6 SI MM FELICIE 1971-02-01 03:00:00 TS -21.5084 48.6913 main 42 20 P____P___PP_P_ SH091971 -21.5924 48.5998 -1 -21.3923 48.8149 99 -21.5924 48.5998 TC 25 -21.5728 48.6271 1 -21.3923 48.8149 TC 62 6 240
1971017S11059 1971 6 SI MM FELICIE 1971-02-01 06:00:00 TS -21.6600 48.4200 reunion main 20 0 O____O___OO_O_ jtwc_sh SH091971 -21.7000 48.3000 -1 -21.6000 48.6000 3 9.90000 -21.7000 48.3000 TC 25 -21.7000 48.3000 1 -21.6000 48.6000 TC 65 6 239
1971017S11059 1971 6 SI MM FELICIE 1971-02-01 09:00:00 TS -21.8420 48.1029 main 0 0 P____P___PP_P_ SH091971 -21.8924 48.0075 -1 -21.7724 48.2526 3 -21.8924 48.0075 TC 25 -21.8806 47.9946 1 -21.7724 48.2526 TC 60 7 241
1971017S11059 1971 6 SI MM FELICIE 1971-02-01 12:00:00 TS -22.0144 47.7361 reunion main 0 0 O____O___OP_O_ jtwc_sh SH091971 -22.1000 47.7000 -1 -21.9000 47.8000 99 9.90000 -22.1000 47.7000 TC 25 -22.0720 47.6804 1 -21.9000 47.8000 TC 55 8 247
1971017S11059 1971 6 SI MM FELICIE 1971-02-01 15:00:00 TS -22.1454 47.3311 main 0 0 P____P___PP_P_ SH091971 -22.2724 47.3650 -1 -21.9649 47.2873 99 -22.2724 47.3650 TC 25 -22.2524 47.3509 1 -21.9649 47.2873 TC 50 8 254
1971017S11059 1971 6 SI MM FELICIE 1971-02-01 18:00:00 TS -22.2400 46.8800 reunion main 0 0 O____O___OO_O_ jtwc_sh SH091971 -22.4000 47.0000 -1 -22.0000 46.7000 99 9.90000 -22.4000 47.0000 TC 25 -22.4000 47.0000 1 -22.0000 46.7000 TC 45 9 260
1971017S11059 1971 6 SI MM FELICIE 1971-02-01 21:00:00 TS -22.3070 46.3878 main 0 0 P____P___PP_P_ SH091971 -22.4650 46.6074 -1 -22.0575 46.0576 99 -22.4650 46.6074 TC 25 -22.4901 46.6090 1 -22.0575 46.0576 TC 40 9 263
1971017S11059 1971 6 SI MM FELICIE 1971-02-02 00:00:00 TS -22.3490 45.8799 reunion main 0 0 O____O___OP_O_ jtwc_sh SH091971 -22.5000 46.2000 -1 -22.1000 45.4000 99 9.90000 -22.5000 46.2000 TC 25 -22.5452 46.1995 1 -22.1000 45.4000 TC 35 10 266
1971017S11059 1971 6 SI MM FELICIE 1971-02-02 03:00:00 TS -22.3816 45.3620 main 0 0 P____P___PP_P_ SH091971 -22.5500 45.7925 -1 -22.1153 44.7175 99 -22.5500 45.7925 TC 25 -22.5776 45.7903 1 -22.1153 44.7175 TC 32 9 267
1971017S11059 1971 6 SI MM FELICIE 1971-02-02 06:00:00 TS -22.4000 44.9200 reunion main 0 0 O____O___OO_O_ jtwc_sh SH091971 -22.6000 45.4000 -1 -22.1000 44.2000 99 9.90000 -22.6000 45.4000 TC 25 -22.6000 45.4000 7 -22.1000 44.2000 TC 30 7 268
1971017S11059 1971 6 SI MM FELICIE 1971-02-02 09:00:00 TS -22.4075 44.6385 main 0 0 P____P___PP_P_ SH091971 -22.6574 45.0350 -1 -22.0496 44.0325 99 -22.6574 45.0350 TC 25 -22.6236 45.0572 7 -22.0496 44.0325 TC 30 5 269
1971017S11059 1971 6 SI MM FELICIE 1971-02-02 12:00:00 TS -22.4084 44.4269 reunion main 0 0 O____O___OP_O_ jtwc_sh SH091971 -22.7000 44.7000 -1 -22.0000 44.0000 99 9.90000 -22.7000 44.7000 TC 25 -22.6419 44.7346 7 -22.0000 44.0000 TC 30 4 269
1971017S11059 1971 6 SI MM FELICIE 1971-02-02 15:00:00 TS -22.4128 44.1929 main 0 0 P____P___PP_P_ SH091971 -22.6999 44.3999 -1 -22.0000 43.8726 99 -22.6999 44.3999 TC 25 -22.6642 44.4197 7 -22.0000 43.8726 TC 27 5 269
1971017S11059 1971 6 SI MM FELICIE 1971-02-02 18:00:00 TS -22.4200 43.9400 reunion main 0 0 O____O___OO_O_ jtwc_sh SH091971 -22.7000 44.1000 -1 -22.0000 43.7000 99 9.90000 -22.7000 44.1000 TC 25 -22.7000 44.1000 7 -22.0000 43.7000 TC 25 5 270
1971017S11059 1971 6 SI MM FELICIE 1971-02-02 21:00:00 TS -22.4158 43.6297 main 0 0 P____P___PP_P_ SH091971 -22.7350 43.7575 -1 -21.9426 43.4424 99 -22.7350 43.7575 TC 25 -22.7240 43.7486 7 -21.9426 43.4424 TC 25 6 269
1971017S11059 1971 6 SI MM FELICIE 1971-02-03 00:00:00 TS -22.4335 43.3183 reunion main 0 0 O____O___OP_O_ jtwc_sh SH091971 -22.8000 43.4000 -1 -21.9000 43.2000 99 9.90000 -22.8000 43.4000 TC 25 -22.7675 43.3917 7 -21.9000 43.2000 TC 25 5 264
1971017S11059 1971 6 SI MM FELICIE 1971-02-03 03:00:00 TS -22.4714 43.0557 main 20 20 P____P___PP_P_ SH091971 -22.8700 43.0424 -1 -21.8824 43.0774 99 -22.8700 43.0424 TC 25 -22.8522 43.0390 7 -21.8824 43.0774 TC 30 5 250
1971017S11059 1971 6 SI MM FELICIE 1971-02-03 06:00:00 TS -22.6000 42.8200 reunion main 52 52 O____O___OO_O_ jtwc_sh SH091971 -23.0000 42.7000 -1 -22.0000 43.0000 3 9.90000 -23.0000 42.7000 TC 25 -23.0000 42.7000 1 -22.0000 43.0000 TC 35 6 228
1971017S11059 1971 6 SI MM FELICIE 1971-02-03 09:00:00 TS -22.8708 42.5772 main 82 82 P____P___PP_P_ SH091971 -23.2124 42.3924 -1 -22.3550 42.8778 3 -23.2124 42.3924 TC 25 -23.2192 42.3458 1 -22.3550 42.8778 TC 35 8 214
1971017S11059 1971 6 SI MM FELICIE 1971-02-03 12:00:00 TS -23.2205 42.3622 reunion main 111 111 O____O___OP_O_ jtwc_sh SH091971 -23.5000 42.1000 -1 -22.8000 42.8000 99 9.90000 -23.5000 42.1000 TC 25 -23.5027 42.0112 1 -22.8000 42.8000 TC 35 8 207
1971017S11059 1971 6 SI MM FELICIE 1971-02-03 15:00:00 TS -23.5640 42.1891 main 142 142 P____P___PP_P_ SH091971 -23.8275 41.7850 -1 -23.1650 42.8273 99 -23.8275 41.7850 TC 25 -23.8349 41.7209 1 -23.1650 42.8273 TC 37 8 202
1971017S11059 1971 6 SI MM FELICIE 1971-02-03 18:00:00 TS -23.9200 42.0600 reunion main 154 154 O____O___OO_O_ jtwc_sh SH091971 -24.2000 41.5000 -1 -23.5000 42.9000 99 9.90000 -24.2000 41.5000 TC 25 -24.2000 41.5000 1 -23.5000 42.9000 TC 40 7 198
1971017S11059 1971 6 SI MM FELICIE 1971-02-03 21:00:00 TS -24.2724 41.9401 main 183 183 P____P___PP_P_ SH091971 -24.5925 41.2402 -1 -23.7850 42.9575 99 -24.5925 41.2402 TC 25 -24.6071 41.3053 1 -23.7850 42.9575 TC 40 7 193
1971017S11059 1971 6 SI MM FELICIE 1971-02-04 00:00:00 TS -24.6473 41.8781 reunion main 190 190 O____O___OP_O_ jtwc_sh SH091971 -25.0000 41.1000 -1 -24.1000 43.0000 99 9.90000 -25.0000 41.1000 TC 25 -25.0364 41.1906 1 -24.1000 43.0000 TC 40 8 184
1971017S11059 1971 6 SI MM FELICIE 1971-02-04 03:00:00 TS -25.0934 41.8831 main 199 199 P____P___PP_P_ SH091971 -25.4298 41.1098 -1 -24.5800 43.0076 99 -25.4298 41.1098 TC 25 -25.4475 41.1805 1 -24.5800 43.0076 TC 40 8 174
1971017S11059 1971 6 SI MM FELICIE 1971-02-04 06:00:00 MX -25.4800 41.9800 reunion main 207 196 O____O___OO_O_ jtwc_sh SH091971 -25.8000 41.3000 -1 -25.0000 43.0000 5 9.90000 -25.8000 41.3000 TC 25 -25.8000 41.3000 1 -25.0000 43.0000 EX 40 7 155
1971017S11059 1971 6 SI MM FELICIE 1971-02-04 09:00:00 MX -25.6836 42.1792 main 196 183 P____P___PP_P_ SH091971 -26.0377 41.6550 -1 -25.1450 43.0000 5 -26.0377 41.6550 TC 25 -26.0527 41.5859 1 -25.1450 43.0000 EX 40 5 128
1971017S11059 1971 6 SI MM FELICIE 1971-02-04 12:00:00 TS -25.8083 42.4388 reunion main 183 164 O____O___OP_O_ jtwc_sh SH091971 -26.2000 42.1000 -1 -25.2000 43.0000 99 9.90000 -26.2000 42.1000 TC 25 -26.2413 41.9939 1 -25.2000 43.0000 TC 40 5 121
1971017S11059 1971 6 SI MM FELICIE 1971-02-04 15:00:00 TS -25.9598 42.6970 main 171 164 P____P___PP_P_ SH091971 -26.3650 42.5151 -1 -25.3425 43.0000 99 -26.3650 42.5151 TC 25 -26.3841 42.4550 1 -25.3425 43.0000 TC 40 5 123
1971017S11059 1971 6 SI MM FELICIE 1971-02-04 18:00:00 TS -26.1000 42.9400 reunion main 165 158 O____O___OO_O_ jtwc_sh SH091971 -26.5000 42.9000 -1 -25.5000 43.0000 99 9.90000 -26.5000 42.9000 TC 25 -26.5000 42.9000 1 -25.5000 43.0000 TC 40 5 124
1971017S11059 1971 6 SI MM FELICIE 1971-02-04 21:00:00 TS -26.2271 43.1410 main 161 156 P____P___PP_P_ SH091971 -26.6073 43.2152 -1 -25.6575 43.0000 99 -26.6073 43.2152 TC 25 -26.6059 43.2747 1 -25.6575 43.0000 TC 40 4 120
1971017S11059 1971 6 SI MM FELICIE 1971-02-05 00:00:00 TS -26.2777 43.2798 reunion main 156 156 O____O___OP_O_ jtwc_sh SH091971 -26.7000 43.5000 -1 -25.8000 43.0000 99 9.90000 -26.7000 43.5000 TC 25 -26.7067 43.5853 1 -25.8000 43.0000 TC 40 2 101
1971017S11059 1971 6 SI MM FELICIE 1971-02-05 03:00:00 TS -26.2642 43.3490 main 156 141 P____P___PP_P_ SH091971 -26.7977 43.7948 -1 -25.8625 43.0000 99 -26.7977 43.7948 TC 25 -26.8042 43.8532 1 -25.8625 43.0000 TC 40 0 36
1971017S11059 1971 6 SI MM FELICIE 1971-02-05 06:00:00 MX -26.2455 43.3000 reunion main 149 149 O____O___OO_O_ jtwc_sh SH091971 -26.9000 44.1000 -1 -26.0000 43.0000 5 9.90000 -26.9000 44.1000 TC 25 -26.9000 44.1000 1 -26.0000 43.0000 EX 40 3 257
1971017S11059 1971 6 SI MM FELICIE 1971-02-05 09:00:00 ET -26.3400 42.9926 main 176 176 _____P______P_ SH091971 -1 -26.3400 42.9926 5 TC 1 -26.3400 42.9926 EX 40 6 206
1971017S11059 1971 6 SI MM FELICIE 1971-02-05 12:00:00 TS -26.8000 43.0000 reunion main 218 218 _____O______O_ -1 -26.8000 43.0000 99 9.90000 1 -26.8000 43.0000 TC 40 10 0
1971017S11059 1971 6 SI MM FELICIE 1971-02-05 15:00:00 TS -27.2850 43.0203 main 263 263 _____P______P_ -1 -27.2850 43.0203 99 1 -27.2850 43.0203 TC 37 10 175
1971017S11059 1971 6 SI MM FELICIE 1971-02-05 18:00:00 TS -27.8000 43.1000 reunion main 307 307 _____O______O_ -1 -27.8000 43.1000 99 9.90000 -27.8000 43.1000 TC 35 11 168
1971017S11059 1971 6 SI MM FELICIE 1971-02-05 21:00:00 TS -28.3075 43.2699 main 352 352 _____P______P_ -1 -28.3075 43.2699 99 -28.3075 43.2699 TC 32 11 161
1971017S11059 1971 6 SI MM FELICIE 1971-02-06 00:00:00 ET -28.8000 43.5000 reunion main 394 394 _____O______O_ -1 -28.8000 43.5000 99 9.90000 -28.8000 43.5000 EX 30 10 156
1971017S11059 1971 6 SI MM FELICIE 1971-02-06 03:00:00 ET -29.2601 43.7472 main 438 435 _____P______P_ -1 -29.2601 43.7472 99 -29.2601 43.7472 EX 27 10 154
1971017S11059 1971 6 SI MM FELICIE 1971-02-06 06:00:00 MX -29.7000 44.0000 reunion main 472 _____O______O_ -1 -29.7000 44.0000 6 9.90000 -29.7000 44.0000 EX 25 10 153

IBTrACS Databaseについて

本データベースは、米国NOAAが公開する1842年以降の世界の熱帯低気圧のベストトラックデータアーカイブInternational Best Track Archive for Climate Stewardship (IBTrACS)を、ウェブで閲覧しやすい形式に変換したものです。

最終更新日:2021-12-03